Time;durP1;ratioP1;P1;durP2;ratioP2;P2;SDS_P1;SDS_P2;PMS_P1;PMS_P2;Temp;Humidity;BMP_temperature;BMP_pressure;BME280_temperature;BME280_humidity;BME280_pressure;Samples;Min_cycle;Max_cycle;Signal;HPM_P1;HPM_P2
2023/04/14 00:00:08;;;;;;;;;;;6.30;99.90;;;;;;4916495;29;19923;-81
2023/04/14 00:05:24;;;;;;;;;;;6.20;99.90;;;;;;4919813;29;20192;-81
2023/04/14 00:07:50;;;;;;;;;;;6.20;99.90;;;;;;4919030;29;19923;-81
2023/04/14 00:10:17;;;;;;;;;;;6.20;99.90;;;;;;4918135;29;20030;-81
2023/04/14 00:12:45;;;;;;;;;;;6.20;99.90;;;;;;4918830;29;19922;-81
2023/04/14 00:15:11;;;;;;;;;;;6.20;99.90;;;;;;4918070;29;19942;-82
2023/04/14 00:17:38;;;;;;;;;;;6.20;99.90;;;;;;4919129;29;19959;-81
2023/04/14 00:20:07;;;;;;;;;;;6.20;99.90;;;;;;4918765;29;20354;-81
2023/04/14 00:25:19;;;;;;;;;;;6.10;99.90;;;;;;4918751;29;19923;-81
2023/04/14 00:27:46;;;;;;;;;;;6.00;99.90;;;;;;4918649;29;19931;-82
2023/04/14 00:30:14;;;;;;;;;;;5.90;99.90;;;;;;4917811;29;19934;-82
2023/04/14 00:35:29;;;;;;;;;;;5.80;99.90;;;;;;4917676;29;19979;-82
2023/04/14 00:37:57;;;;;;;;;;;5.80;99.90;;;;;;4919352;29;19957;-83
2023/04/14 00:40:23;;;;;;;;;;;5.80;99.90;;;;;;4919339;29;19923;-82
2023/04/14 00:42:50;;;;;;;;;;;5.80;99.90;;;;;;4917362;29;20278;-82
2023/04/14 00:45:17;;;;;;;;;;;5.80;99.90;;;;;;4919471;29;19923;-82
2023/04/14 00:47:49;;;;;;;;;;;5.90;99.90;;;;;;4919216;29;20388;-82
2023/04/14 00:50:16;;;;;;;;;;;5.90;99.90;;;;;;4917583;29;19963;-82
2023/04/14 00:52:45;;;;;;;;;;;5.90;99.90;;;;;;4919205;29;20273;-82
2023/04/14 00:55:12;;;;;;;;;;;6.00;99.90;;;;;;4917514;29;20017;-82
2023/04/14 00:57:39;;;;;;;;;;;6.00;99.90;;;;;;4919486;29;20278;-82
2023/04/14 01:00:05;;;;;;;;;;;6.00;99.90;;;;;;4903515;29;19927;-82
2023/04/14 01:02:33;;;;;;;;;;;6.10;99.90;;;;;;4898114;29;20329;-82
2023/04/14 01:05:00;;;;;;;;;;;6.10;99.90;;;;;;4899420;29;19930;-82
2023/04/14 01:07:27;;;;;;;;;;;6.20;99.90;;;;;;4900436;29;19924;-82
2023/04/14 01:09:54;;;;;;;;;;;6.10;99.90;;;;;;4899262;29;20105;-82
2023/04/14 01:12:22;;;;;;;;;;;6.10;99.90;;;;;;4899845;29;19923;-82
2023/04/14 01:14:50;;;;;;;;;;;6.30;99.90;;;;;;4899328;29;20014;-82
2023/04/14 01:17:20;;;;;;;;;;;6.40;99.90;;;;;;4899229;29;19959;-82
2023/04/14 01:19:46;;;;;;;;;;;6.40;99.90;;;;;;4899115;29;20270;-82
2023/04/14 01:22:15;;;;;;;;;;;6.40;99.90;;;;;;4898184;29;19975;-82
2023/04/14 01:24:42;;;;;;;;;;;6.40;99.90;;;;;;4899065;29;19930;-82
2023/04/14 01:27:10;;;;;;;;;;;6.50;99.90;;;;;;4899017;29;19941;-82
2023/04/14 01:29:36;;;;;;;;;;;6.50;99.90;;;;;;4898921;29;19923;-83
2023/04/14 01:34:49;;;;;;;;;;;6.50;99.90;;;;;;4902354;29;19923;-82
2023/04/14 01:37:17;;;;;;;;;;;6.50;99.90;;;;;;4904193;29;19923;-82
2023/04/14 01:39:44;;;;;;;;;;;6.60;99.90;;;;;;4903545;29;19934;-82
2023/04/14 01:42:11;;;;;;;;;;;6.60;99.90;;;;;;4903425;29;19923;-81
2023/04/14 01:44:37;;;;;;;;;;;6.70;99.90;;;;;;4903320;29;19958;-82
2023/04/14 01:47:04;;;;;;;;;;;6.60;99.90;;;;;;4887097;29;19923;-81
2023/04/14 01:49:31;;;;;;;;;;;6.60;99.90;;;;;;4901835;29;19924;-82
2023/04/14 01:52:00;;;;;;;;;;;6.60;99.90;;;;;;4902441;29;20266;-81
2023/04/14 01:54:27;;;;;;;;;;;6.60;99.90;;;;;;4902561;29;19923;-81
2023/04/14 01:56:54;;;;;;;;;;;6.60;99.90;;;;;;4901905;29;19924;-81
2023/04/14 01:59:21;;;;;;;;;;;6.60;99.90;;;;;;4912615;29;19962;-82
2023/04/14 02:01:48;;;;;;;;;;;6.60;99.90;;;;;;4904682;29;19923;-81
2023/04/14 02:04:14;;;;;;;;;;;6.60;99.90;;;;;;4921317;29;19933;-82
2023/04/14 02:06:41;;;;;;;;;;;6.60;99.90;;;;;;4921099;29;20235;-82
2023/04/14 02:09:09;;;;;;;;;;;6.60;99.90;;;;;;4920579;29;20356;-81
2023/04/14 02:11:36;;;;;;;;;;;6.50;99.90;;;;;;4921101;29;19962;-81
2023/04/14 02:14:04;;;;;;;;;;;6.50;99.90;;;;;;4921022;29;20273;-82
2023/04/14 02:16:30;;;;;;;;;;;6.50;99.90;;;;;;4904570;29;19934;-82
2023/04/14 02:18:57;;;;;;;;;;;6.50;99.90;;;;;;4921164;29;19923;-81
2023/04/14 02:21:25;;;;;;;;;;;6.50;99.90;;;;;;4919863;29;19923;-81
2023/04/14 02:23:53;;;;;;;;;;;6.50;99.90;;;;;;4905396;29;19977;-81
2023/04/14 02:26:21;;;;;;;;;;;6.40;99.90;;;;;;4920861;29;19923;-81
2023/04/14 02:28:47;;;;;;;;;;;6.40;99.90;;;;;;4920189;29;19934;-81
2023/04/14 02:31:15;;;;;;;;;;;6.50;99.90;;;;;;4921524;29;20381;-81
2023/04/14 02:33:44;;;;;;;;;;;6.50;99.90;;;;;;4920716;29;19982;-81
2023/04/14 02:36:11;;;;;;;;;;;6.50;99.90;;;;;;4904214;29;19923;-81
2023/04/14 02:38:38;;;;;;;;;;;6.50;99.90;;;;;;4904898;29;19934;-81
2023/04/14 02:41:04;;;;;;;;;;;6.50;99.90;;;;;;4920405;29;20302;-81
2023/04/14 02:43:32;;;;;;;;;;;6.50;99.90;;;;;;4919898;29;20346;-81
2023/04/14 02:46:01;;;;;;;;;;;6.50;99.90;;;;;;4920445;29;19933;-82
2023/04/14 02:48:28;;;;;;;;;;;6.50;99.90;;;;;;4919802;29;20303;-81
2023/04/14 02:50:55;;;;;;;;;;;6.50;99.90;;;;;;4920161;29;20014;-81
2023/04/14 02:53:25;;;;;;;;;;;6.40;99.90;;;;;;4920598;29;19958;-81
2023/04/14 02:56:02;;;;;;;;;;;6.40;99.90;;;;;;4919587;29;19933;-81
2023/04/14 02:58:33;;;;;;;;;;;6.40;99.90;;;;;;4920286;29;19923;-81
2023/04/14 03:01:00;;;;;;;;;;;6.40;99.90;;;;;;4920016;29;20323;-81
2023/04/14 03:05:58;;;;;;;;;;;6.30;99.90;;;;;;4919913;29;19934;-81
2023/04/14 03:08:25;;;;;;;;;;;6.30;99.90;;;;;;4919298;29;19923;-81
2023/04/14 03:10:51;;;;;;;;;;;6.30;99.90;;;;;;4919853;29;19923;-81
2023/04/14 03:16:08;;;;;;;;;;;6.40;99.90;;;;;;4919103;29;20373;-81
2023/04/14 03:18:36;;;;;;;;;;;6.40;99.90;;;;;;4904210;29;19944;-81
2023/04/14 03:21:03;;;;;;;;;;;6.40;99.90;;;;;;4919912;29;19975;-81
2023/04/14 03:23:32;;;;;;;;;;;6.40;99.90;;;;;;4918920;29;19962;-81
2023/04/14 03:26:03;;;;;;;;;;;6.40;99.90;;;;;;4920270;29;19927;-81
2023/04/14 03:28:31;;;;;;;;;;;6.40;99.90;;;;;;4919861;29;20353;-81
2023/04/14 03:31:00;;;;;;;;;;;6.30;99.90;;;;;;4919484;29;20342;-81
2023/04/14 03:33:34;;;;;;;;;;;6.30;99.90;;;;;;4919625;29;19982;-81
2023/04/14 03:36:02;;;;;;;;;;;6.30;99.90;;;;;;4918780;29;19955;-81
2023/04/14 03:38:29;;;;;;;;;;;6.30;99.90;;;;;;4919508;29;19976;-81
2023/04/14 03:40:58;;;;;;;;;;;6.20;99.90;;;;;;4919354;29;20285;-81
2023/04/14 03:46:13;;;;;;;;;;;6.20;99.90;;;;;;4919939;29;19974;-81
2023/04/14 03:48:43;;;;;;;;;;;6.10;99.90;;;;;;4918495;29;19922;-81
2023/04/14 03:51:12;;;;;;;;;;;6.10;99.90;;;;;;4919221;29;19934;-81
2023/04/14 03:53:41;;;;;;;;;;;6.10;99.90;;;;;;4918819;29;19927;-81
2023/04/14 03:56:08;;;;;;;;;;;6.00;99.90;;;;;;4918498;29;19966;-81
2023/04/14 03:58:35;;;;;;;;;;;6.00;99.90;;;;;;4919218;29;20037;-81
2023/04/14 04:01:03;;;;;;;;;;;6.00;99.90;;;;;;4919265;29;20310;-81
2023/04/14 04:03:32;;;;;;;;;;;5.90;99.90;;;;;;4919385;29;20413;-81
2023/04/14 04:05:59;;;;;;;;;;;5.90;99.90;;;;;;4920186;29;20338;-81
2023/04/14 04:08:26;;;;;;;;;;;5.80;99.90;;;;;;4918448;29;19923;-81
2023/04/14 04:10:52;;;;;;;;;;;5.80;99.90;;;;;;4919779;29;19965;-81
2023/04/14 04:13:20;;;;;;;;;;;5.80;99.90;;;;;;4919885;29;20333;-81
2023/04/14 04:15:47;;;;;;;;;;;5.80;99.90;;;;;;4918202;29;20040;-80
2023/04/14 04:18:14;;;;;;;;;;;5.80;99.90;;;;;;4919892;29;19933;-81
2023/04/14 04:20:42;;;;;;;;;;;5.70;99.90;;;;;;4918610;29;19923;-81
2023/04/14 04:23:09;;;;;;;;;;;5.70;99.90;;;;;;4917915;29;19975;-81
2023/04/14 04:25:36;;;;;;;;;;;5.60;99.90;;;;;;4918601;29;20017;-81
2023/04/14 04:28:14;;;;;;;;;;;5.60;99.90;;;;;;4917919;29;19927;-81
2023/04/14 04:30:41;;;;;;;;;;;5.60;99.90;;;;;;4918670;29;20397;-81
2023/04/14 04:33:09;;;;;;;;;;;5.50;99.90;;;;;;4918617;29;19963;-81
2023/04/14 04:35:36;;;;;;;;;;;5.50;99.90;;;;;;4917867;29;19966;-81
2023/04/14 04:38:05;;;;;;;;;;;5.50;99.90;;;;;;4919522;29;19939;-81
2023/04/14 04:40:32;;;;;;;;;;;5.50;99.90;;;;;;4918352;29;20297;-82
2023/04/14 04:42:59;;;;;;;;;;;5.40;99.90;;;;;;4917783;29;19923;-83
2023/04/14 04:45:25;;;;;;;;;;;5.40;99.90;;;;;;4918455;29;20031;-81
2023/04/14 04:47:52;;;;;;;;;;;5.40;99.90;;;;;;4918391;29;19934;-81
2023/04/14 04:50:19;;;;;;;;;;;5.50;99.90;;;;;;4917354;29;19923;-81
2023/04/14 04:52:46;;;;;;;;;;;5.50;99.90;;;;;;4918483;29;19923;-81
2023/04/14 04:55:14;;;;;;;;;;;5.50;99.90;;;;;;4918498;29;19934;-81
2023/04/14 04:57:41;;;;;;;;;;;5.60;99.90;;;;;;4918308;29;19923;-80
2023/04/14 05:00:07;;;;;;;;;;;5.60;99.90;;;;;;4902167;29;19939;-81
2023/04/14 05:02:35;;;;;;;;;;;5.60;99.90;;;;;;4899272;29;19923;-81
2023/04/14 05:05:02;;;;;;;;;;;5.70;99.90;;;;;;4899185;29;19979;-81
2023/04/14 05:07:29;;;;;;;;;;;5.80;99.90;;;;;;4900342;29;19935;-81
2023/04/14 05:09:56;;;;;;;;;;;5.80;99.90;;;;;;4899378;29;19924;-81
2023/04/14 05:12:24;;;;;;;;;;;5.90;99.90;;;;;;4898979;29;19997;-81
2023/04/14 05:14:51;;;;;;;;;;;5.90;99.90;;;;;;4898184;29;20358;-81
2023/04/14 05:17:18;;;;;;;;;;;5.90;99.90;;;;;;4899231;29;19939;-81
2023/04/14 05:19:44;;;;;;;;;;;5.90;99.90;;;;;;4900065;29;20354;-82
2023/04/14 05:22:13;;;;;;;;;;;5.90;99.90;;;;;;4898236;29;19923;-81
2023/04/14 05:24:40;;;;;;;;;;;5.80;99.90;;;;;;4900333;29;20333;-81
2023/04/14 05:27:06;;;;;;;;;;;5.90;99.90;;;;;;4899936;29;20387;-81
2023/04/14 05:29:40;;;;;;;;;;;5.90;99.90;;;;;;4899241;29;20422;-80
2023/04/14 05:32:08;;;;;;;;;;;5.90;99.90;;;;;;4899007;29;20026;-82
2023/04/14 05:34:34;;;;;;;;;;;6.00;99.90;;;;;;4900330;29;19934;-82
2023/04/14 05:37:01;;;;;;;;;;;6.00;99.90;;;;;;4898093;29;19966;-82
2023/04/14 05:39:28;;;;;;;;;;;6.10;99.90;;;;;;4900058;29;19937;-82
2023/04/14 05:44:40;;;;;;;;;;;6.20;99.90;;;;;;4899920;29;19923;-82
2023/04/14 05:47:07;;;;;;;;;;;6.20;99.90;;;;;;4898858;29;19923;-80
2023/04/14 05:49:34;;;;;;;;;;;6.30;99.90;;;;;;4898905;29;19927;-81
2023/04/14 05:52:03;;;;;;;;;;;6.30;99.90;;;;;;4899568;29;19927;-81
2023/04/14 05:54:30;;;;;;;;;;;6.40;99.90;;;;;;4898982;29;20331;-81
2023/04/14 05:56:56;;;;;;;;;;;6.40;99.90;;;;;;4898040;29;19924;-81
2023/04/14 05:59:23;;;;;;;;;;;6.50;99.90;;;;;;4901557;29;19927;-81
2023/04/14 06:01:50;;;;;;;;;;;6.50;99.90;;;;;;4917461;29;19934;-81
2023/04/14 06:04:17;;;;;;;;;;;6.50;99.90;;;;;;4917493;29;19994;-81
2023/04/14 06:06:44;;;;;;;;;;;6.60;99.90;;;;;;4918277;29;19927;-81
2023/04/14 06:09:10;;;;;;;;;;;6.60;99.90;;;;;;4917873;29;19929;-82
2023/04/14 06:11:38;;;;;;;;;;;6.70;99.90;;;;;;4918280;29;19927;-82
2023/04/14 06:14:06;;;;;;;;;;;6.80;99.90;;;;;;4917347;29;19931;-81
2023/04/14 06:16:34;;;;;;;;;;;6.80;99.90;;;;;;4919470;29;19923;-81
2023/04/14 06:19:01;;;;;;;;;;;6.90;99.90;;;;;;4921128;29;20377;-81
2023/04/14 06:21:28;;;;;;;;;;;6.90;99.90;;;;;;4921030;29;19937;-81
2023/04/14 06:23:57;;;;;;;;;;;7.00;99.90;;;;;;4922285;29;20029;-81
2023/04/14 06:26:23;;;;;;;;;;;7.00;99.90;;;;;;4922541;29;19923;-81
2023/04/14 06:28:50;;;;;;;;;;;7.10;99.90;;;;;;4921064;29;20319;-81
2023/04/14 06:31:17;;;;;;;;;;;7.10;99.90;;;;;;4920761;29;19927;-81
2023/04/14 06:36:33;;;;;;;;;;;7.30;99.90;;;;;;4920903;29;20299;-81
2023/04/14 06:38:59;;;;;;;;;;;7.50;99.90;;;;;;4904968;29;19994;-82
2023/04/14 06:41:27;;;;;;;;;;;7.60;99.90;;;;;;4919649;29;19945;-82
2023/04/14 06:43:55;;;;;;;;;;;7.70;99.90;;;;;;4920568;29;19923;-81
2023/04/14 06:46:21;;;;;;;;;;;7.80;99.90;;;;;;4904725;29;19923;-82
2023/04/14 06:48:48;;;;;;;;;;;7.90;99.90;;;;;;4920069;29;20025;-82
2023/04/14 06:51:15;;;;;;;;;;;8.10;99.90;;;;;;4920525;29;20339;-81
2023/04/14 06:53:44;;;;;;;;;;;8.20;99.90;;;;;;4921002;29;19933;-81
2023/04/14 06:56:10;;;;;;;;;;;8.30;99.90;;;;;;4920465;29;19923;-81
2023/04/14 06:58:38;;;;;;;;;;;8.40;99.90;;;;;;4921739;29;19923;-82
2023/04/14 07:01:05;;;;;;;;;;;8.40;99.90;;;;;;4920945;29;19923;-82
2023/04/14 07:03:34;;;;;;;;;;;8.40;99.90;;;;;;4919444;29;20390;-81
2023/04/14 07:06:01;;;;;;;;;;;8.40;99.90;;;;;;4916962;29;19994;-82
2023/04/14 07:08:30;;;;;;;;;;;8.40;99.90;;;;;;4916134;29;19931;-81
2023/04/14 07:10:57;;;;;;;;;;;8.40;99.90;;;;;;4919527;29;19923;-82
2023/04/14 07:13:25;;;;;;;;;;;8.40;99.90;;;;;;4902331;29;19927;-81
2023/04/14 07:15:52;;;;;;;;;;;8.50;99.90;;;;;;4901296;29;20414;-81
2023/04/14 07:18:19;;;;;;;;;;;8.50;99.90;;;;;;4916886;29;19927;-82
2023/04/14 07:20:46;;;;;;;;;;;8.50;99.90;;;;;;4916627;29;19924;-82
2023/04/14 07:23:14;;;;;;;;;;;8.50;99.90;;;;;;4916004;29;19931;-81
2023/04/14 07:25:41;;;;;;;;;;;8.50;99.90;;;;;;4902420;29;20270;-81
2023/04/14 07:28:07;;;;;;;;;;;8.60;99.90;;;;;;4900017;29;19934;-81
2023/04/14 07:30:35;;;;;;;;;;;8.60;99.90;;;;;;4901568;29;19966;-81
2023/04/14 07:33:03;;;;;;;;;;;8.70;99.90;;;;;;4900958;29;20026;-81
2023/04/14 07:35:30;;;;;;;;;;;8.70;99.90;;;;;;4899958;29;19955;-81
2023/04/14 07:37:56;;;;;;;;;;;8.80;99.90;;;;;;4901235;29;20271;-80
2023/04/14 07:40:23;;;;;;;;;;;8.90;99.90;;;;;;4900534;29;20022;-81
2023/04/14 07:42:50;;;;;;;;;;;9.10;99.90;;;;;;4900906;29;20347;-80
2023/04/14 07:45:17;;;;;;;;;;;9.20;99.90;;;;;;4901469;29;19923;-79
2023/04/14 07:47:44;;;;;;;;;;;9.30;99.90;;;;;;4901662;29;19927;-79
2023/04/14 07:50:10;;;;;;;;;;;9.30;99.90;;;;;;4900752;29;19958;-80
2023/04/14 07:52:38;;;;;;;;;;;9.30;99.90;;;;;;4901514;29;19923;-80
2023/04/14 07:55:05;;;;;;;;;;;9.40;99.90;;;;;;4899741;29;19934;-81
2023/04/14 07:57:31;;;;;;;;;;;9.40;99.90;;;;;;4900282;29;20274;-80
2023/04/14 07:59:58;;;;;;;;;;;9.50;99.90;;;;;;4900926;29;19923;-81
2023/04/14 08:02:24;;;;;;;;;;;9.60;99.90;;;;;;4915044;29;19934;-80
2023/04/14 08:04:52;;;;;;;;;;;9.70;99.90;;;;;;4902058;29;19927;-79
2023/04/14 08:07:19;;;;;;;;;;;9.80;99.90;;;;;;4919628;29;19934;-78
2023/04/14 08:09:46;;;;;;;;;;;9.80;99.90;;;;;;4919424;29;19933;-78
2023/04/14 08:12:15;;;;;;;;;;;9.90;99.90;;;;;;4919924;29;20009;-79
2023/04/14 08:14:42;;;;;;;;;;;9.90;99.90;;;;;;4918993;29;19923;-78
2023/04/14 08:17:09;;;;;;;;;;;9.90;99.90;;;;;;4920422;29;20358;-82
2023/04/14 08:19:35;;;;;;;;;;;10.00;99.90;;;;;;4918812;29;19923;-82
2023/04/14 08:22:02;;;;;;;;;;;10.10;99.90;;;;;;4922449;29;19947;-82
2023/04/14 08:24:29;;;;;;;;;;;10.10;99.90;;;;;;4920028;29;19927;-82
2023/04/14 08:26:56;;;;;;;;;;;10.10;99.90;;;;;;4920643;29;19962;-81
2023/04/14 08:29:23;;;;;;;;;;;10.10;99.90;;;;;;4914319;29;19923;-82
2023/04/14 08:31:49;;;;;;;;;;;10.20;99.90;;;;;;4902325;29;19927;-85
2023/04/14 08:34:16;;;;;;;;;;;10.20;99.90;;;;;;4899816;29;19950;-86
2023/04/14 08:36:54;;;;;;;;;;;10.30;99.90;;;;;;4900876;29;20265;-83
2023/04/14 08:39:21;;;;;;;;;;;10.50;99.90;;;;;;4886778;29;19933;-85
2023/04/14 08:41:48;;;;;;;;;;;10.60;99.90;;;;;;4915480;29;19923;-83
2023/04/14 08:44:14;;;;;;;;;;;10.60;99.90;;;;;;4897533;29;19923;-82
2023/04/14 08:46:45;;;;;;;;;;;10.80;99.90;;;;;;4934197;29;19923;-83
2023/04/14 08:49:15;;;;;;;;;;;10.90;99.90;;;;;;4918176;29;19926;-88
2023/04/14 08:51:43;;;;;;;;;;;10.90;99.90;;;;;;4902433;29;19982;-85
2023/04/14 08:56:39;;;;;;;;;;;11.00;99.90;;;;;;4918016;29;19937;-84
2023/04/14 08:59:06;;;;;;;;;;;11.10;99.90;;;;;;4902244;29;19986;-84
2023/04/14 09:01:33;;;;;;;;;;;11.00;99.90;;;;;;4917516;29;19927;-85
2023/04/14 09:04:05;;;;;;;;;;;11.10;99.90;;;;;;4918081;29;20366;-87
2023/04/14 09:06:33;;;;;;;;;;;11.30;99.90;;;;;;4918244;29;20362;-86
2023/04/14 09:09:07;;;;;;;;;;;11.30;99.90;;;;;;4917492;29;19927;-83
2023/04/14 09:11:34;;;;;;;;;;;11.40;99.90;;;;;;4918186;29;19923;-83
2023/04/14 09:16:47;;;;;;;;;;;11.60;99.90;;;;;;4916954;29;20373;-85
2023/04/14 09:19:14;;;;;;;;;;;11.70;99.90;;;;;;4918364;29;19959;-85
2023/04/14 09:21:41;;;;;;;;;;;11.70;99.90;;;;;;4900422;29;19923;-82
2023/04/14 09:24:27;;;;;;;;;;;11.70;99.90;;;;;;4916140;29;20270;-81
2023/04/14 09:26:57;;;;;;;;;;;11.60;99.90;;;;;;4898428;29;19924;-82
2023/04/14 09:29:24;;;;;;;;;;;11.50;99.90;;;;;;4898657;29;19924;-82
2023/04/14 09:31:50;;;;;;;;;;;11.50;99.90;;;;;;4883123;29;19923;-82
2023/04/14 09:34:17;;;;;;;;;;;11.50;99.90;;;;;;4899446;29;19935;-82
2023/04/14 09:36:44;;;;;;;;;;;11.50;99.90;;;;;;4882851;29;20343;-81
2023/04/14 09:39:11;;;;;;;;;;;11.50;99.90;;;;;;4883077;29;19949;-81
2023/04/14 09:41:37;;;;;;;;;;;11.40;99.90;;;;;;4881895;29;19931;-82
2023/04/14 09:44:05;;;;;;;;;;;11.30;99.90;;;;;;4900043;29;19979;-83
2023/04/14 09:46:32;;;;;;;;;;;11.20;99.90;;;;;;4883473;29;19935;-79
2023/04/14 09:48:59;;;;;;;;;;;11.20;99.90;;;;;;4894046;29;19927;-84
2023/04/14 09:51:26;;;;;;;;;;;11.20;99.90;;;;;;4917429;29;19923;-84
2023/04/14 09:53:58;;;;;;;;;;;11.10;99.90;;;;;;4890712;29;19931;-84
2023/04/14 09:56:26;;;;;;;;;;;11.10;99.90;;;;;;4904491;29;20018;-84
2023/04/14 09:58:53;;;;;;;;;;;11.20;99.90;;;;;;4921911;29;19923;-81
2023/04/14 10:01:20;;;;;;;;;;;11.20;99.90;;;;;;4899995;29;19931;-81
2023/04/14 10:03:47;;;;;;;;;;;11.10;99.90;;;;;;4899495;29;19927;-85
2023/04/14 10:06:14;;;;;;;;;;;11.00;99.90;;;;;;4905230;29;19923;-84
2023/04/14 10:08:41;;;;;;;;;;;10.90;99.90;;;;;;4920717;29;19923;-84
2023/04/14 10:11:07;;;;;;;;;;;10.90;99.90;;;;;;4889417;29;19923;-86
2023/04/14 10:16:19;;;;;;;;;;;11.20;99.90;;;;;;4930437;29;19948;-85
2023/04/14 10:18:46;;;;;;;;;;;11.40;99.90;;;;;;4921715;29;19923;-87
2023/04/14 10:21:13;;;;;;;;;;;11.50;99.90;;;;;;4919324;29;19965;-86
2023/04/14 10:23:41;;;;;;;;;;;11.60;99.90;;;;;;4904520;29;20422;-86
2023/04/14 10:26:08;;;;;;;;;;;11.60;99.90;;;;;;4905006;29;20350;-86
2023/04/14 10:28:37;;;;;;;;;;;11.50;99.90;;;;;;4904750;29;20318;-84
2023/04/14 10:31:06;;;;;;;;;;;11.30;99.90;;;;;;4936585;29;19978;-86
2023/04/14 10:33:37;;;;;;;;;;;11.00;99.90;;;;;;4922397;29;19927;-89
2023/04/14 10:36:03;;;;;;;;;;;10.60;99.90;;;;;;4894421;29;19923;-85
2023/04/14 10:38:30;;;;;;;;;;;10.20;99.90;;;;;;4925045;29;19947;-84
2023/04/14 10:40:58;;;;;;;;;;;10.10;99.90;;;;;;4905182;29;19923;-86
2023/04/14 10:43:26;;;;;;;;;;;9.90;99.90;;;;;;4904576;29;20020;-86
2023/04/14 10:45:53;;;;;;;;;;;9.80;99.90;;;;;;4905613;29;19930;-86
2023/04/14 10:48:21;;;;;;;;;;;9.80;99.90;;;;;;4920915;29;20286;-86
2023/04/14 10:50:47;;;;;;;;;;;9.70;99.90;;;;;;4921269;29;19934;-88
2023/04/14 10:53:17;;;;;;;;;;;9.60;99.90;;;;;;4905118;29;20371;-85
2023/04/14 10:55:45;;;;;;;;;;;9.50;99.90;;;;;;4903515;29;20243;-83
2023/04/14 10:58:18;;;;;;;;;;;9.50;99.90;;;;;;4931164;29;19926;-87
2023/04/14 11:00:45;;;;;;;;;;;9.60;99.90;;;;;;4921467;29;20334;-87
2023/04/14 11:03:13;;;;;;;;;;;9.50;99.90;;;;;;4920581;29;19934;-84
2023/04/14 11:05:40;;;;;;;;;;;9.40;99.90;;;;;;4917402;29;19934;-88
2023/04/14 11:08:07;;;;;;;;;;;9.10;99.90;;;;;;4926189;29;19942;-87
2023/04/14 11:10:33;;;;;;;;;;;9.10;99.90;;;;;;4920305;29;19983;-83
2023/04/14 11:13:02;;;;;;;;;;;9.40;99.90;;;;;;4920480;29;19949;-84
2023/04/14 11:15:30;;;;;;;;;;;9.80;99.90;;;;;;4919450;29;19970;-83
2023/04/14 11:17:57;;;;;;;;;;;10.40;99.90;;;;;;4920093;29;19934;-83
2023/04/14 11:20:24;;;;;;;;;;;10.40;99.90;;;;;;4920149;29;19959;-84
2023/04/14 11:22:52;;;;;;;;;;;10.60;99.90;;;;;;4924968;29;19934;-84
2023/04/14 11:25:18;;;;;;;;;;;10.60;99.90;;;;;;4901052;29;19959;-85
2023/04/14 11:27:49;;;;;;;;;;;10.60;99.90;;;;;;4901010;29;19966;-85
2023/04/14 11:30:15;;;;;;;;;;;10.50;99.90;;;;;;4884312;29;19923;-85
2023/04/14 11:35:28;;;;;;;;;;;11.10;99.90;;;;;;4899837;29;19923;-81
2023/04/14 11:37:55;;;;;;;;;;;11.40;99.90;;;;;;4900608;29;19931;-83
2023/04/14 11:40:22;;;;;;;;;;;11.50;99.90;;;;;;4900475;29;19934;-83
2023/04/14 11:42:50;;;;;;;;;;;11.60;99.90;;;;;;4900673;29;19927;-83
2023/04/14 11:45:17;;;;;;;;;;;11.70;99.90;;;;;;4901698;29;20290;-83
2023/04/14 11:47:44;;;;;;;;;;;11.80;99.90;;;;;;4901496;29;19927;-84
2023/04/14 11:50:11;;;;;;;;;;;12.10;99.90;;;;;;4899029;29;19954;-84
2023/04/14 11:52:37;;;;;;;;;;;12.60;99.90;;;;;;4900440;29;19927;-83
2023/04/14 11:55:05;;;;;;;;;;;12.30;99.90;;;;;;4898774;29;19995;-84
2023/04/14 11:57:31;;;;;;;;;;;12.30;99.90;;;;;;4900378;29;19979;-84
2023/04/14 11:59:58;;;;;;;;;;;12.60;99.90;;;;;;4900707;29;19923;-83
2023/04/14 12:02:25;;;;;;;;;;;12.80;99.90;;;;;;4900175;29;19934;-83
2023/04/14 12:04:52;;;;;;;;;;;12.90;99.90;;;;;;4915736;29;19975;-82
2023/04/14 12:07:19;;;;;;;;;;;12.60;99.90;;;;;;4915773;29;19978;-83
2023/04/14 12:09:46;;;;;;;;;;;12.60;99.90;;;;;;4914299;29;19931;-83
2023/04/14 12:12:13;;;;;;;;;;;12.50;99.90;;;;;;4915691;29;20322;-83
2023/04/14 12:14:42;;;;;;;;;;;12.40;99.90;;;;;;4914124;29;20014;-84
2023/04/14 12:17:09;;;;;;;;;;;12.50;99.90;;;;;;4900801;29;19923;-85
2023/04/14 12:19:36;;;;;;;;;;;12.50;99.90;;;;;;4900350;29;19934;-83
2023/04/14 12:22:02;;;;;;;;;;;12.70;99.90;;;;;;4899823;29;19923;-84
2023/04/14 12:24:29;;;;;;;;;;;12.50;99.90;;;;;;4900853;29;20346;-84
2023/04/14 12:26:56;;;;;;;;;;;12.40;99.90;;;;;;4915565;29;19967;-84
2023/04/14 12:29:23;;;;;;;;;;;12.00;99.90;;;;;;4914229;29;19934;-84
2023/04/14 12:31:49;;;;;;;;;;;11.80;99.90;;;;;;4901096;29;19923;-84
2023/04/14 12:34:18;;;;;;;;;;;11.70;99.90;;;;;;4915424;29;19990;-84
2023/04/14 12:36:45;;;;;;;;;;;11.70;99.90;;;;;;4904584;29;19923;-83
2023/04/14 12:39:16;;;;;;;;;;;11.80;99.90;;;;;;4900077;29;19939;-83
2023/04/14 12:41:42;;;;;;;;;;;11.90;99.90;;;;;;4899315;29;19923;-84
2023/04/14 12:44:10;;;;;;;;;;;12.00;99.90;;;;;;4883535;29;20116;-83
2023/04/14 12:46:37;;;;;;;;;;;12.30;99.90;;;;;;4899871;29;20386;-83
2023/04/14 12:49:04;;;;;;;;;;;12.40;99.90;;;;;;4898329;29;19990;-84
2023/04/14 12:51:31;;;;;;;;;;;12.20;99.90;;;;;;4892491;29;19928;-85
2023/04/14 12:56:43;;;;;;;;;;;11.90;99.90;;;;;;4899288;29;19924;-84
2023/04/14 12:59:09;;;;;;;;;;;12.10;99.90;;;;;;4911685;29;20006;-83
2023/04/14 13:01:37;;;;;;;;;;;12.60;99.90;;;;;;4898265;29;19923;-83
2023/04/14 13:04:05;;;;;;;;;;;12.80;99.90;;;;;;4907491;29;20357;-83
2023/04/14 13:06:32;;;;;;;;;;;13.20;99.90;;;;;;4930486;29;19949;-83
2023/04/14 13:08:59;;;;;;;;;;;13.30;99.90;;;;;;4935190;29;19923;-83
2023/04/14 13:11:27;;;;;;;;;;;13.20;99.90;;;;;;4936042;29;20364;-83
2023/04/14 13:13:54;;;;;;;;;;;13.30;99.90;;;;;;4936195;29;19930;-84
2023/04/14 13:16:21;;;;;;;;;;;13.10;99.90;;;;;;4919819;29;19932;-84
2023/04/14 13:18:52;;;;;;;;;;;12.90;99.90;;;;;;4936528;29;20276;-83
2023/04/14 13:21:19;;;;;;;;;;;12.70;99.90;;;;;;4936294;29;20354;-83
2023/04/14 13:23:47;;;;;;;;;;;12.50;99.90;;;;;;4937654;29;19923;-84
2023/04/14 13:26:13;;;;;;;;;;;12.50;99.90;;;;;;4936754;29;19937;-84
2023/04/14 13:28:40;;;;;;;;;;;12.40;99.90;;;;;;4936051;29;19931;-83
2023/04/14 13:31:07;;;;;;;;;;;12.30;99.90;;;;;;4936017;29;20333;-83
2023/04/14 13:33:33;;;;;;;;;;;12.30;99.90;;;;;;4936418;29;19933;-83
2023/04/14 13:36:00;;;;;;;;;;;12.10;99.90;;;;;;4935743;29;19923;-83
2023/04/14 13:38:28;;;;;;;;;;;11.80;99.90;;;;;;4920024;29;19926;-83
2023/04/14 13:40:54;;;;;;;;;;;11.80;99.90;;;;;;4935675;29;19937;-84
2023/04/14 13:43:22;;;;;;;;;;;12.00;99.90;;;;;;4924419;29;19927;-84
2023/04/14 13:45:48;;;;;;;;;;;12.20;99.90;;;;;;4901529;29;19934;-83
2023/04/14 13:48:15;;;;;;;;;;;12.20;99.90;;;;;;4917045;29;19923;-83
2023/04/14 13:50:42;;;;;;;;;;;12.40;99.90;;;;;;4897815;29;19931;-84
2023/04/14 13:53:09;;;;;;;;;;;12.50;99.90;;;;;;4910229;29;19933;-84
2023/04/14 13:55:35;;;;;;;;;;;12.20;99.90;;;;;;4934596;29;19923;-83
2023/04/14 13:58:02;;;;;;;;;;;11.90;99.90;;;;;;4936992;29;19929;-83
2023/04/14 14:00:29;;;;;;;;;;;11.60;99.90;;;;;;4917010;29;19934;-83
2023/04/14 14:02:56;;;;;;;;;;;11.30;99.90;;;;;;4916820;29;19974;-82
2023/04/14 14:05:23;;;;;;;;;;;11.10;99.90;;;;;;4900823;29;19929;-82
2023/04/14 14:07:50;;;;;;;;;;;11.00;99.90;;;;;;4901215;29;19927;-83
2023/04/14 14:10:17;;;;;;;;;;;10.90;99.90;;;;;;4916538;29;19974;-82
2023/04/14 14:12:43;;;;;;;;;;;10.90;99.90;;;;;;4901054;29;20022;-83
2023/04/14 14:15:11;;;;;;;;;;;11.00;99.90;;;;;;4900261;29;20373;-83
2023/04/14 14:17:37;;;;;;;;;;;11.20;99.90;;;;;;4917555;29;19931;-84
2023/04/14 14:20:05;;;;;;;;;;;11.30;99.90;;;;;;4928495;29;19969;-83
2023/04/14 14:22:32;;;;;;;;;;;11.20;99.90;;;;;;4934686;29;19934;-82
2023/04/14 14:24:59;;;;;;;;;;;11.10;99.90;;;;;;4919313;29;19922;-82
2023/04/14 14:27:41;;;;;;;;;;;10.90;99.90;;;;;;4936818;29;19922;-82
2023/04/14 14:30:07;;;;;;;;;;;10.90;99.90;;;;;;4918287;29;19922;-83
2023/04/14 14:32:34;;;;;;;;;;;10.80;99.90;;;;;;4936658;29;19930;-83
2023/04/14 14:35:01;;;;;;;;;;;10.80;99.90;;;;;;4934840;29;20552;-83
2023/04/14 14:37:28;;;;;;;;;;;10.70;99.90;;;;;;4937883;29;19922;-82
2023/04/14 14:39:56;;;;;;;;;;;10.70;99.90;;;;;;4938368;29;19922;-83
2023/04/14 14:42:22;;;;;;;;;;;10.70;99.90;;;;;;4919935;29;19927;-83
2023/04/14 14:44:49;;;;;;;;;;;10.70;99.90;;;;;;4912836;29;19930;-82
2023/04/14 14:47:16;;;;;;;;;;;10.70;99.90;;;;;;4940066;29;19923;-83
2023/04/14 14:49:43;;;;;;;;;;;10.60;99.90;;;;;;4938782;29;20037;-83
2023/04/14 14:52:25;;;;;;;;;;;10.60;99.90;;;;;;4923799;29;19922;-85
2023/04/14 14:54:55;;;;;;;;;;;10.50;99.90;;;;;;4937930;29;19923;-81
2023/04/14 14:57:21;;;;;;;;;;;10.50;99.90;;;;;;4940170;29;19923;-80
2023/04/14 14:59:48;;;;;;;;;;;10.40;99.90;;;;;;4926076;29;19933;-80
2023/04/14 15:02:15;;;;;;;;;;;10.40;99.90;;;;;;4919062;29;19923;-81